Time;durP1;ratioP1;P1;durP2;ratioP2;P2;SDS_P1;SDS_P2;PMS_P1;PMS_P2;Temp;Humidity;BMP_temperature;BMP_pressure;BME280_temperature;BME280_humidity;BME280_pressure;Samples;Min_cycle;Max_cycle;Signal;HPM_P1;HPM_P2
2021/04/26 00:01:57;;;;;;;;;;;;;;;-0.15;43.32;101494.27;1685551;84;20262;-71
2021/04/26 00:04:23;;;;;;;;;;;;;;;-0.17;43.36;101492.06;1682208;84;20289;-71
2021/04/26 00:06:50;;;;;;;;;;;;;;;-0.22;43.36;101488.06;1671593;84;20248;-71
2021/04/26 00:09:16;;;;;;;;;;;;;;;-0.26;43.40;101488.73;1678459;84;20288;-71
2021/04/26 00:11:42;;;;;;;;;;;;;;;-0.29;43.46;101494.09;1679558;84;20268;-71
2021/04/26 00:14:11;;;;;;;;;;;;;;;-0.33;43.51;101493.09;1656251;84;20263;-71
2021/04/26 00:16:37;;;;;;;;;;;;;;;-0.37;43.57;101490.83;1678413;84;20258;-71
2021/04/26 00:19:04;;;;;;;;;;;;;;;-0.40;43.54;101497.05;1641891;85;20537;-71
2021/04/26 00:21:31;;;;;;;;;;;;;;;-0.44;43.57;101487.96;1682155;84;20288;-71
2021/04/26 00:23:59;;;;;;;;;;;;;;;-0.47;43.61;101490.38;1687605;84;20623;-71
2021/04/26 00:26:25;;;;;;;;;;;;;;;-0.48;43.66;101489.91;1681037;84;20309;-71
2021/04/26 00:28:52;;;;;;;;;;;;;;;-0.54;43.74;101493.08;1652858;85;20238;-71
2021/04/26 00:31:23;;;;;;;;;;;;;;;-0.57;43.79;101495.89;1660278;84;20340;-71
2021/04/26 00:33:50;;;;;;;;;;;;;;;-0.60;43.85;101494.48;1677239;84;20290;-71
2021/04/26 00:36:18;;;;;;;;;;;;;;;-0.64;43.87;101492.62;1675994;84;20293;-71
2021/04/26 00:38:45;;;;;;;;;;;;;;;-0.67;43.87;101492.95;1672838;82;117978;-71
2021/04/26 00:41:11;;;;;;;;;;;;;;;-0.69;43.98;101487.34;1665949;84;20295;-71
2021/04/26 00:43:45;;;;;;;;;;;;;;;-0.77;43.99;101493.35;1670405;84;20630;-71
2021/04/26 00:46:12;;;;;;;;;;;;;;;-0.80;44.15;101489.81;1666833;84;20221;-71
2021/04/26 00:48:38;;;;;;;;;;;;;;;-0.86;44.23;101485.33;1663138;84;20294;-71
2021/04/26 00:51:04;;;;;;;;;;;;;;;-0.88;44.35;101486.94;1650324;85;20305;-71
2021/04/26 00:53:31;;;;;;;;;;;;;;;-0.87;44.33;101487.80;1667649;84;20317;-71
2021/04/26 00:55:57;;;;;;;;;;;;;;;-0.87;44.34;101486.53;1679862;84;20343;-71
2021/04/26 00:58:23;;;;;;;;;;;;;;;-0.88;44.39;101484.39;1666120;84;20284;-71
2021/04/26 01:00:51;;;;;;;;;;;;;;;-0.91;44.41;101482.98;1682796;84;20339;-71
2021/04/26 01:03:23;;;;;;;;;;;;;;;-0.92;44.44;101481.25;1661700;84;20307;-71
2021/04/26 01:05:49;;;;;;;;;;;;;;;-0.94;44.45;101475.23;1684123;84;20278;-71
2021/04/26 01:08:15;;;;;;;;;;;;;;;-0.93;44.58;101478.64;1675715;84;20231;-71
2021/04/26 01:10:51;;;;;;;;;;;;;;;-0.93;44.68;101476.11;1670396;84;20310;-71
2021/04/26 01:13:30;;;;;;;;;;;;;;;-0.95;44.71;101472.63;1665217;84;20177;-71
2021/04/26 01:16:06;;;;;;;;;;;;;;;-0.96;44.78;101473.44;1637723;85;20317;-71
2021/04/26 01:18:36;;;;;;;;;;;;;;;-0.98;44.90;101475.03;1681261;84;20289;-71
2021/04/26 01:21:37;;;;;;;;;;;;;;;-1.01;44.96;101477.91;1657686;84;20269;-71
2021/04/26 01:24:09;;;;;;;;;;;;;;;-1.03;44.96;101483.71;1681391;84;20250;-71
2021/04/26 01:26:48;;;;;;;;;;;;;;;-1.04;45.02;101478.20;1679227;84;20262;-71
2021/04/26 01:29:20;;;;;;;;;;;;;;;-1.10;45.03;101477.53;1661085;84;20257;-71
2021/04/26 01:32:05;;;;;;;;;;;;;;;-1.12;45.03;101475.32;1652011;85;20317;-71
2021/04/26 01:34:32;;;;;;;;;;;;;;;-1.14;45.04;101474.38;1658599;84;20440;-71
2021/04/26 01:37:04;;;;;;;;;;;;;;;-1.15;45.12;101478.12;1678095;84;20260;-71
2021/04/26 01:39:31;;;;;;;;;;;;;;;-1.20;45.16;101475.38;1661500;84;20463;-71
2021/04/26 01:41:57;;;;;;;;;;;;;;;-1.23;45.23;101479.44;1675337;84;20317;-71
2021/04/26 01:44:24;;;;;;;;;;;;;;;-1.25;45.26;101474.30;1664807;84;20171;-71
2021/04/26 01:46:51;;;;;;;;;;;;;;;-1.26;45.24;101481.44;1679526;84;20271;-71
2021/04/26 01:49:19;;;;;;;;;;;;;;;-1.28;45.29;101474.55;1678637;84;20165;-72
2021/04/26 01:51:46;;;;;;;;;;;;;;;-1.30;45.34;101477.02;1615463;86;20197;-72
2021/04/26 01:54:12;;;;;;;;;;;;;;;-1.31;45.34;101467.67;1663780;84;20267;-72
2021/04/26 01:56:39;;;;;;;;;;;;;;;-1.30;45.37;101472.34;1666369;84;20177;-72
2021/04/26 01:59:06;;;;;;;;;;;;;;;-1.34;45.39;101467.13;1688322;84;20247;-72
2021/04/26 02:01:32;;;;;;;;;;;;;;;-1.36;45.43;101470.00;1202116;84;5002306;-72
2021/04/26 02:04:01;;;;;;;;;;;;;;;-1.38;45.52;101466.52;1694251;83;20285;-72
2021/04/26 02:06:28;;;;;;;;;;;;;;;-1.42;45.52;101468.45;1664893;84;20168;-72
2021/04/26 02:08:57;;;;;;;;;;;;;;;-1.43;45.57;101470.52;1678791;84;20280;-72
2021/04/26 02:11:23;;;;;;;;;;;;;;;-1.45;45.63;101468.71;1635956;87;20285;-72
2021/04/26 02:13:50;;;;;;;;;;;;;;;-1.54;45.63;101461.94;1659273;84;20256;-72
2021/04/26 02:16:16;;;;;;;;;;;;;;;-1.61;45.76;101457.02;1667957;84;20192;-72
2021/04/26 02:18:42;;;;;;;;;;;;;;;-1.62;45.87;101450.61;1672121;84;20246;-72
2021/04/26 02:21:08;;;;;;;;;;;;;;;-1.63;45.98;101441.27;1686923;84;20254;-71
2021/04/26 02:23:34;;;;;;;;;;;;;;;-1.64;45.97;101442.93;1670457;84;20285;-71
2021/04/26 02:26:00;;;;;;;;;;;;;;;-1.65;45.97;101436.52;1666501;84;20470;-71
2021/04/26 02:28:27;;;;;;;;;;;;;;;-1.69;46.00;101435.11;1665359;84;20176;-71
2021/04/26 02:30:55;;;;;;;;;;;;;;;-1.69;46.18;101435.51;1637328;85;20191;-71
2021/04/26 02:33:35;;;;;;;;;;;;;;;-1.70;46.18;101434.64;1641176;85;20261;-71
2021/04/26 02:36:08;;;;;;;;;;;;;;;-1.78;46.17;101432.14;1648999;85;20244;-71
2021/04/26 02:38:37;;;;;;;;;;;;;;;-1.81;46.27;101429.46;1633656;85;20174;-71
2021/04/26 02:41:10;;;;;;;;;;;;;;;-1.84;46.27;101426.78;1637814;85;20281;-71
2021/04/26 02:43:42;;;;;;;;;;;;;;;-1.89;46.37;101421.90;1636307;85;20154;-71
2021/04/26 02:46:09;;;;;;;;;;;;;;;-1.87;46.40;101425.38;1648632;85;20264;-71
2021/04/26 02:48:39;;;;;;;;;;;;;;;-1.85;46.39;101430.52;1652911;85;20543;-71
2021/04/26 02:51:05;;;;;;;;;;;;;;;-1.87;46.38;101426.64;1643035;85;20529;-71
2021/04/26 02:53:33;;;;;;;;;;;;;;;-1.87;46.39;101425.38;1645859;85;20468;-71
2021/04/26 02:56:05;;;;;;;;;;;;;;;-1.88;46.40;101427.44;1659493;85;20167;-72
2021/04/26 02:58:32;;;;;;;;;;;;;;;-1.90;46.51;101430.30;1646607;85;20185;-72
2021/04/26 03:00:59;;;;;;;;;;;;;;;-1.91;46.48;101423.89;1654675;85;20269;-72
2021/04/26 03:03:26;;;;;;;;;;;;;;;-1.92;46.60;101429.36;1642057;85;20258;-72
2021/04/26 03:05:53;;;;;;;;;;;;;;;-1.94;46.58;101423.75;1639959;85;20458;-72
2021/04/26 03:08:23;;;;;;;;;;;;;;;-1.98;46.70;101425.66;1644558;85;20190;-72
2021/04/26 03:10:50;;;;;;;;;;;;;;;-2.01;46.73;101425.98;1647369;85;20467;-72
2021/04/26 03:13:16;;;;;;;;;;;;;;;-2.01;46.79;101429.79;1642465;85;20441;-72
2021/04/26 03:15:43;;;;;;;;;;;;;;;-2.02;46.86;101428.45;1648332;85;20285;-72
2021/04/26 03:18:14;;;;;;;;;;;;;;;-2.02;46.91;101433.52;1650122;85;20565;-72
2021/04/26 03:20:45;;;;;;;;;;;;;;;-2.10;46.84;101430.65;1653663;85;20475;-72
2021/04/26 03:23:21;;;;;;;;;;;;;;;-2.13;46.94;101432.16;1632765;85;20300;-72
2021/04/26 03:26:04;;;;;;;;;;;;;;;-2.17;46.94;101432.41;1654859;85;20258;-71
2021/04/26 03:28:33;;;;;;;;;;;;;;;-2.18;47.13;101434.47;1630247;85;20448;-71
2021/04/26 03:31:00;;;;;;;;;;;;;;;-2.20;47.14;101432.66;1657720;85;20457;-71
2021/04/26 03:33:27;;;;;;;;;;;;;;;-2.26;47.11;101437.03;1651304;85;20445;-71
2021/04/26 03:35:54;;;;;;;;;;;;;;;-2.27;47.27;101436.95;1638850;85;20265;-71
2021/04/26 03:38:21;;;;;;;;;;;;;;;-2.32;47.19;101429.13;1631576;85;20544;-71
2021/04/26 03:40:47;;;;;;;;;;;;;;;-2.30;47.30;101434.28;1655815;85;20427;-71
2021/04/26 03:43:14;;;;;;;;;;;;;;;-2.31;47.42;101429.61;1646614;85;20263;-71
2021/04/26 03:45:41;;;;;;;;;;;;;;;-2.27;47.43;101431.50;1664264;85;20641;-71
2021/04/26 03:48:08;;;;;;;;;;;;;;;-2.26;47.52;101431.97;1656051;85;20268;-71
2021/04/26 03:50:34;;;;;;;;;;;;;;;-2.24;47.52;101435.45;1651408;85;20556;-71
2021/04/26 03:53:00;;;;;;;;;;;;;;;-2.24;47.57;101432.05;1645829;85;20517;-71
2021/04/26 03:55:26;;;;;;;;;;;;;;;-2.23;47.55;101429.58;1644167;85;20277;-71
2021/04/26 03:57:52;;;;;;;;;;;;;;;-2.19;47.61;101432.73;1661480;85;20536;-72
2021/04/26 04:00:20;;;;;;;;;;;;;;;-2.20;47.64;101435.20;1668141;85;20287;-72
2021/04/26 04:02:46;;;;;;;;;;;;;;;-2.18;47.71;101438.28;1674364;84;20251;-72
2021/04/26 04:05:13;;;;;;;;;;;;;;;-2.13;47.80;101438.50;1678227;84;20437;-71
2021/04/26 04:07:39;;;;;;;;;;;;;;;-2.07;47.88;101440.89;1685546;84;20526;-71
2021/04/26 04:10:08;;;;;;;;;;;;;;;-2.00;47.96;101434.45;1686082;84;20183;-71
2021/04/26 04:12:34;;;;;;;;;;;;;;;-1.90;47.99;101434.09;1683673;84;20266;-71
2021/04/26 04:15:01;;;;;;;;;;;;;;;-1.75;48.05;101430.16;1663724;84;20720;-71
2021/04/26 04:17:27;;;;;;;;;;;;;;;-1.67;48.08;101429.70;1645299;85;20292;-71
2021/04/26 04:19:53;;;;;;;;;;;;;;;-1.61;48.04;101429.52;1676947;84;20524;-71
2021/04/26 04:22:19;;;;;;;;;;;;;;;-1.57;48.02;101433.54;1679272;84;20457;-71
2021/04/26 04:25:05;;;;;;;;;;;;;;;-1.52;48.24;101432.05;1670128;84;20252;-71
2021/04/26 04:27:31;;;;;;;;;;;;;;;-1.40;48.30;101427.94;1638346;85;20277;-72
2021/04/26 04:30:00;;;;;;;;;;;;;;;-1.31;48.23;101433.42;1638246;86;20273;-72
2021/04/26 04:32:26;;;;;;;;;;;;;;;-1.27;48.27;101437.84;1672829;84;20319;-72
2021/04/26 04:34:52;;;;;;;;;;;;;;;-1.32;48.25;101432.09;1680386;84;20289;-72
2021/04/26 04:37:18;;;;;;;;;;;;;;;-1.30;48.47;101435.56;1676131;84;21152;-72
2021/04/26 04:39:44;;;;;;;;;;;;;;;-1.22;48.61;101440.19;1673412;85;20201;-72
2021/04/26 04:42:25;;;;;;;;;;;;;;;-1.14;48.65;101440.52;1680311;83;20257;-72
2021/04/26 04:44:51;;;;;;;;;;;;;;;-1.07;48.77;101435.79;1686221;83;20213;-71
2021/04/26 04:47:17;;;;;;;;;;;;;;;-0.97;48.85;101433.63;1633144;86;20219;-72
2021/04/26 04:49:44;;;;;;;;;;;;;;;-0.87;48.79;101434.09;1661414;85;36931;-72
2021/04/26 04:52:10;;;;;;;;;;;;;;;-0.87;48.92;101442.11;1661279;85;20279;-72
2021/04/26 04:54:38;;;;;;;;;;;;;;;-0.76;49.14;101437.09;1660144;85;20260;-71
2021/04/26 04:57:04;;;;;;;;;;;;;;;-0.68;49.10;101434.08;1651653;85;20258;-72
2021/04/26 04:59:30;;;;;;;;;;;;;;;-0.59;49.17;101437.41;1642575;86;21075;-71
2021/04/26 05:01:56;;;;;;;;;;;;;;;-0.48;49.47;101434.88;1637491;86;20856;-71
2021/04/26 05:04:22;;;;;;;;;;;;;;;-0.31;49.53;101436.85;1621117;87;20167;-71
2021/04/26 05:06:48;;;;;;;;;;;;;;;-0.04;49.89;101429.48;1686834;83;20952;-71
2021/04/26 05:09:14;;;;;;;;;;;;;;;0.50;50.09;101430.73;1687053;83;20302;-73
2021/04/26 05:11:40;;;;;;;;;;;;;;;1.13;50.02;101426.59;1680740;85;20176;-72
2021/04/26 05:14:06;;;;;;;;;;;;;;;1.78;49.46;101427.94;1659131;85;20284;-72
2021/04/26 05:16:32;;;;;;;;;;;;;;;2.46;49.68;101422.41;1635341;86;20278;-72
2021/04/26 05:19:00;;;;;;;;;;;;;;;3.13;49.39;101419.58;1656585;85;20195;-72
2021/04/26 05:21:26;;;;;;;;;;;;;;;3.74;49.57;101418.59;1647620;86;20255;-72
2021/04/26 05:23:52;;;;;;;;;;;;;;;4.41;49.40;101419.72;1628437;86;20274;-72
2021/04/26 05:26:18;;;;;;;;;;;;;;;5.17;49.75;101422.55;1647337;85;20231;-72
2021/04/26 05:28:44;;;;;;;;;;;;;;;5.87;49.50;101418.59;1659681;85;20205;-72
2021/04/26 05:31:10;;;;;;;;;;;;;;;6.44;48.96;101415.59;1661563;85;20274;-73
2021/04/26 05:33:36;;;;;;;;;;;;;;;6.99;48.86;101411.98;1685294;84;20287;-73
2021/04/26 05:36:02;;;;;;;;;;;;;;;7.64;48.87;101416.49;1700877;82;20277;-73
2021/04/26 05:38:28;;;;;;;;;;;;;;;8.35;48.91;101417.86;1672704;84;20294;-73
2021/04/26 05:40:54;;;;;;;;;;;;;;;9.00;48.58;101416.42;1673671;84;20303;-73
2021/04/26 05:43:20;;;;;;;;;;;;;;;9.46;48.48;101416.94;1635802;85;20299;-73
2021/04/26 05:45:46;;;;;;;;;;;;;;;9.85;48.13;101408.36;1676692;84;20163;-73
2021/04/26 05:48:12;;;;;;;;;;;;;;;10.13;47.75;101407.02;1679611;84;20260;-72
2021/04/26 05:50:39;;;;;;;;;;;;;;;10.43;48.09;101412.13;1672517;84;20256;-73
2021/04/26 05:53:05;;;;;;;;;;;;;;;10.89;48.08;101410.68;1643580;84;42656;-72
2021/04/26 05:55:32;;;;;;;;;;;;;;;10.74;47.51;101403.84;1606624;87;20564;-72
2021/04/26 05:58:06;;;;;;;;;;;;;;;10.71;47.61;101410.75;1618115;87;20268;-74
2021/04/26 06:00:32;;;;;;;;;;;;;;;10.60;47.51;101414.67;1612830;87;20283;-73
2021/04/26 06:02:58;;;;;;;;;;;;;;;10.42;47.42;101415.58;1590146;88;20266;-73
2021/04/26 06:05:24;;;;;;;;;;;;;;;10.20;47.30;101412.20;1622494;87;20204;-73
2021/04/26 06:07:51;;;;;;;;;;;;;;;9.89;47.31;101414.35;1623084;87;20197;-72
2021/04/26 06:10:17;;;;;;;;;;;;;;;9.85;47.41;101412.23;1590950;88;20285;-72
2021/04/26 06:12:43;;;;;;;;;;;;;;;10.00;47.72;101406.59;1621492;87;20152;-73
2021/04/26 06:15:10;;;;;;;;;;;;;;;10.29;47.68;101410.04;1618735;87;20200;-72
2021/04/26 06:17:36;;;;;;;;;;;;;;;10.36;47.35;101407.01;1617567;87;20336;-72
2021/04/26 06:20:03;;;;;;;;;;;;;;;10.11;47.16;101407.45;1617789;87;20432;-72
2021/04/26 06:22:29;;;;;;;;;;;;;;;9.86;47.28;101411.80;1616403;87;20160;-72
2021/04/26 06:24:55;;;;;;;;;;;;;;;9.88;47.46;101414.78;1591425;88;20286;-72
2021/04/26 06:27:21;;;;;;;;;;;;;;;9.77;47.32;101412.66;1627883;87;20828;-73
2021/04/26 06:29:47;;;;;;;;;;;;;;;9.68;47.36;101419.11;1587599;88;20293;-73
2021/04/26 06:32:13;;;;;;;;;;;;;;;9.51;47.21;101433.72;1618933;87;20595;-72
2021/04/26 06:34:41;;;;;;;;;;;;;;;9.37;47.29;101442.73;1612659;87;20303;-73
2021/04/26 06:37:07;;;;;;;;;;;;;;;9.28;47.29;101438.44;1620159;87;20310;-72
2021/04/26 06:39:33;;;;;;;;;;;;;;;9.11;47.12;101445.27;1613840;87;20295;-73
2021/04/26 06:42:00;;;;;;;;;;;;;;;8.86;47.28;101447.31;1618608;87;20252;-73
2021/04/26 06:44:27;;;;;;;;;;;;;;;8.78;47.45;101442.16;1621760;87;20324;-73
2021/04/26 06:46:53;;;;;;;;;;;;;;;8.86;47.48;101443.45;1620307;87;20263;-72
2021/04/26 06:49:21;;;;;;;;;;;;;;;8.86;47.40;101433.99;1617763;87;20311;-72
2021/04/26 06:51:48;;;;;;;;;;;;;;;8.90;47.18;101437.02;1589838;88;20475;-72
2021/04/26 06:54:14;;;;;;;;;;;;;;;9.04;47.39;101435.78;1618479;87;20426;-72
2021/04/26 06:56:41;;;;;;;;;;;;;;;8.97;47.25;101436.61;1609620;87;20176;-72
2021/04/26 06:59:07;;;;;;;;;;;;;;;8.82;47.26;101440.02;1586224;88;20311;-72
2021/04/26 07:01:34;;;;;;;;;;;;;;;8.56;47.27;101435.16;1612407;87;20581;-72
2021/04/26 07:04:00;;;;;;;;;;;;;;;8.34;47.28;101433.31;1596262;87;20282;-73
2021/04/26 07:06:26;;;;;;;;;;;;;;;8.13;47.36;101434.89;1619928;87;20222;-73
2021/04/26 07:08:52;;;;;;;;;;;;;;;7.95;47.37;101435.61;1589510;88;20289;-72
2021/04/26 07:11:19;;;;;;;;;;;;;;;7.73;47.40;101432.88;1616543;87;20297;-72
2021/04/26 07:13:45;;;;;;;;;;;;;;;7.60;47.46;101433.18;1615583;87;20718;-72
2021/04/26 07:16:11;;;;;;;;;;;;;;;7.60;47.67;101435.75;1590085;88;20273;-72
2021/04/26 07:18:37;;;;;;;;;;;;;;;7.77;47.68;101435.48;1625567;87;20279;-73
2021/04/26 07:21:04;;;;;;;;;;;;;;;7.91;47.72;101429.99;1621156;87;20338;-73
2021/04/26 07:23:33;;;;;;;;;;;;;;;8.04;47.62;101429.66;1584560;88;20620;-72
2021/04/26 07:26:04;;;;;;;;;;;;;;;8.12;47.68;101427.14;1617334;87;20299;-72
2021/04/26 07:28:31;;;;;;;;;;;;;;;8.28;47.68;101432.41;1622205;87;20247;-72
2021/04/26 07:30:57;;;;;;;;;;;;;;;8.41;47.68;101426.91;1618915;87;20169;-73
2021/04/26 07:33:24;;;;;;;;;;;;;;;8.71;47.72;101427.94;1586249;88;20276;-73
2021/04/26 07:35:50;;;;;;;;;;;;;;;9.18;48.00;101422.92;1623995;87;20293;-73
2021/04/26 07:38:16;;;;;;;;;;;;;;;9.75;47.76;101418.69;1588222;88;20460;-73
2021/04/26 07:40:43;;;;;;;;;;;;;;;10.08;47.57;101413.48;1587685;88;20717;-73
2021/04/26 07:43:09;;;;;;;;;;;;;;;10.59;47.77;101414.23;1617649;87;20437;-73
2021/04/26 07:45:35;;;;;;;;;;;;;;;10.95;47.53;101413.20;1631610;87;20248;-73
2021/04/26 07:48:02;;;;;;;;;;;;;;;11.35;47.57;101414.29;1591742;88;20180;-73
2021/04/26 07:50:28;;;;;;;;;;;;;;;11.76;47.72;101402.31;1618546;87;20176;-73
2021/04/26 07:52:54;;;;;;;;;;;;;;;12.23;47.65;101402.74;1588677;88;20266;-73
2021/04/26 07:55:20;;;;;;;;;;;;;;;12.46;47.16;101403.80;1623551;87;21137;-74
2021/04/26 07:57:46;;;;;;;;;;;;;;;12.49;47.35;101402.44;1635535;87;20253;-74
2021/04/26 08:00:13;;;;;;;;;;;;;;;12.62;47.30;101403.59;1637539;85;20667;-74
2021/04/26 08:02:39;;;;;;;;;;;;;;;12.64;47.23;101396.66;1665599;85;20303;-74
2021/04/26 08:05:06;;;;;;;;;;;;;;;12.63;47.38;101394.49;1670319;84;20209;-73
2021/04/26 08:07:32;;;;;;;;;;;;;;;12.46;47.26;101393.42;1678168;84;20269;-74
2021/04/26 08:09:58;;;;;;;;;;;;;;;12.46;47.34;101401.64;1650396;85;20293;-74
2021/04/26 08:12:23;;;;;;;;;;;;;;;12.43;47.28;101393.89;1640563;86;20185;-73
2021/04/26 08:14:50;;;;;;;;;;;;;;;12.25;47.27;101391.92;1675547;84;20258;-74
2021/04/26 08:17:16;;;;;;;;;;;;;;;12.10;47.38;101382.14;1679461;84;20248;-73
2021/04/26 08:19:42;;;;;;;;;;;;;;;12.02;47.32;101392.58;1639877;85;20194;-73
2021/04/26 08:22:09;;;;;;;;;;;;;;;11.76;47.13;101385.03;1662524;84;20216;-73
2021/04/26 08:24:35;;;;;;;;;;;;;;;11.53;47.09;101386.51;1672620;84;20173;-73
2021/04/26 08:27:01;;;;;;;;;;;;;;;11.26;47.19;101386.30;1678734;84;20264;-73
2021/04/26 08:29:31;;;;;;;;;;;;;;;11.07;47.21;101392.87;1673858;84;20277;-73
2021/04/26 08:31:57;;;;;;;;;;;;;;;10.80;47.08;101387.00;1691639;84;20170;-73
2021/04/26 08:34:23;;;;;;;;;;;;;;;10.56;47.14;101387.95;1690021;84;20185;-73
2021/04/26 08:36:49;;;;;;;;;;;;;;;10.50;47.29;101381.52;1682571;84;20266;-74
2021/04/26 08:39:17;;;;;;;;;;;;;;;10.48;47.08;101384.53;1657390;85;20281;-74
2021/04/26 08:41:44;;;;;;;;;;;;;;;10.39;47.08;101383.30;1691246;84;20308;-74
2021/04/26 08:44:10;;;;;;;;;;;;;;;10.42;46.92;101383.27;1671017;84;20474;-74
2021/04/26 08:46:38;;;;;;;;;;;;;;;10.77;46.97;101375.38;1654160;85;20265;-74
2021/04/26 08:49:04;;;;;;;;;;;;;;;11.34;46.98;101372.00;1654032;85;20275;-74
2021/04/26 08:51:31;;;;;;;;;;;;;;;11.97;47.23;101372.76;1668770;85;20213;-75
2021/04/26 08:53:57;;;;;;;;;;;;;;;12.37;46.86;101368.89;1664802;85;20303;-74
2021/04/26 08:56:23;;;;;;;;;;;;;;;12.78;46.59;101366.20;1655604;85;20266;-74
2021/04/26 08:58:49;;;;;;;;;;;;;;;13.07;46.79;101355.39;1601428;84;5000699;-74
2021/04/26 09:01:15;;;;;;;;;;;;;;;13.28;46.92;101355.55;1668460;85;20298;-74
2021/04/26 09:03:42;;;;;;;;;;;;;;;13.36;46.87;101355.00;1665859;85;20164;-75
2021/04/26 09:06:11;;;;;;;;;;;;;;;13.31;46.49;101347.27;1657679;85;20514;-74
2021/04/26 09:08:38;;;;;;;;;;;;;;;13.09;46.54;101354.94;1663021;85;20271;-75
2021/04/26 09:11:08;;;;;;;;;;;;;;;12.90;46.92;101346.58;1649170;85;20264;-75
2021/04/26 09:13:38;;;;;;;;;;;;;;;12.51;46.51;101355.28;1640399;85;20410;-75
2021/04/26 09:16:17;;;;;;;;;;;;;;;12.12;46.19;101350.58;1644543;85;20300;-75
2021/04/26 09:19:01;;;;;;;;;;;;;;;11.87;46.11;101346.96;1645421;85;20261;-75
2021/04/26 09:21:33;;;;;;;;;;;;;;;11.60;45.99;101341.55;1650919;85;20186;-75
2021/04/26 09:24:23;;;;;;;;;;;;;;;11.25;45.76;101334.09;1650921;85;20273;-75
2021/04/26 09:26:49;;;;;;;;;;;;;;;11.11;45.78;101341.52;1642900;85;291664;-76
2021/04/26 09:29:24;;;;;;;;;;;;;;;10.97;45.31;101349.37;1646975;85;20265;-76
2021/04/26 09:32:08;;;;;;;;;;;;;;;10.93;45.03;101330.41;1643903;85;20289;-74
2021/04/26 09:34:36;;;;;;;;;;;;;;;10.92;44.94;101342.92;1618563;87;20267;-75
2021/04/26 09:37:20;;;;;;;;;;;;;;;10.90;44.50;101342.11;1637526;86;20284;-74
2021/04/26 09:40:11;;;;;;;;;;;;;;;10.63;44.08;101337.07;1650271;85;20268;-74
2021/04/26 09:42:42;;;;;;;;;;;;;;;10.32;44.15;101335.06;1650709;85;20295;-74
2021/04/26 09:45:31;;;;;;;;;;;;;;;10.02;44.12;101332.09;1650247;85;20310;-74
2021/04/26 09:48:27;;;;;;;;;;;;;;;9.84;44.15;101330.87;1621482;87;20275;-75
2021/04/26 09:50:58;;;;;;;;;;;;;;;9.79;44.25;101332.17;1623045;87;20288;-74
2021/04/26 09:53:26;;;;;;;;;;;;;;;9.65;43.90;101335.63;1650256;85;20277;-74
2021/04/26 09:55:54;;;;;;;;;;;;;;;9.56;43.97;101331.32;1647685;85;20293;-74
2021/04/26 09:58:20;;;;;;;;;;;;;;;9.49;43.88;101336.05;1616340;87;20257;-75
2021/04/26 10:00:47;;;;;;;;;;;;;;;9.44;43.51;101332.61;1632472;87;20285;-74
2021/04/26 10:03:14;;;;;;;;;;;;;;;9.34;43.32;101326.61;1628366;87;20169;-74
2021/04/26 10:05:45;;;;;;;;;;;;;;;9.23;43.32;101316.71;1604408;88;20204;-74
2021/04/26 10:08:15;;;;;;;;;;;;;;;9.19;43.31;101323.59;1628270;87;20259;-74
2021/04/26 10:10:43;;;;;;;;;;;;;;;9.12;43.37;101323.58;1635083;85;20308;-74
2021/04/26 10:13:09;;;;;;;;;;;;;;;9.03;43.17;101326.14;1630819;85;20494;-74
2021/04/26 10:15:36;;;;;;;;;;;;;;;8.99;43.15;101326.99;1634958;86;20313;-75
2021/04/26 10:18:07;;;;;;;;;;;;;;;8.91;42.98;101327.84;1637379;85;20315;-75
2021/04/26 10:20:39;;;;;;;;;;;;;;;8.85;42.90;101325.67;1650697;85;20317;-75
2021/04/26 10:23:08;;;;;;;;;;;;;;;8.95;43.08;101321.83;1644956;85;20287;-75
2021/04/26 10:25:37;;;;;;;;;;;;;;;9.08;42.88;101321.42;1635779;85;20294;-75
2021/04/26 10:28:24;;;;;;;;;;;;;;;9.16;42.75;101322.72;1647275;85;20182;-75
2021/04/26 10:31:03;;;;;;;;;;;;;;;9.24;42.64;101316.72;1571806;90;20315;-74
2021/04/26 10:33:48;;;;;;;;;;;;;;;9.24;42.41;101312.84;1561218;90;20281;-75
2021/04/26 10:36:35;;;;;;;;;;;;;;;9.28;42.62;101303.38;1578325;89;20483;-75
2021/04/26 10:39:08;;;;;;;;;;;;;;;9.43;42.60;101301.20;1583196;89;20279;-74
2021/04/26 10:41:52;;;;;;;;;;;;;;;9.53;42.46;101302.92;1574932;90;20277;-75
2021/04/26 10:44:44;;;;;;;;;;;;;;;9.46;42.13;101298.63;1577286;89;20297;-75
2021/04/26 10:47:25;;;;;;;;;;;;;;;9.41;41.93;101296.04;1586493;89;20278;-75
2021/04/26 10:49:50;;;;;;;;;;;;;;;9.30;41.95;101299.08;1585275;89;20330;-75
2021/04/26 10:52:35;;;;;;;;;;;;;;;9.34;41.99;101292.20;1584907;89;20283;-75
2021/04/26 10:55:06;;;;;;;;;;;;;;;9.34;42.00;101296.07;1580841;89;21134;-75
2021/04/26 10:57:57;;;;;;;;;;;;;;;9.30;42.00;101302.95;1581103;89;20348;-74
2021/04/26 11:00:28;;;;;;;;;;;;;;;9.27;41.96;101298.66;1574110;90;20180;-74
2021/04/26 11:03:07;;;;;;;;;;;;;;;9.34;41.97;101289.62;1647035;85;20611;-74
2021/04/26 11:05:45;;;;;;;;;;;;;;;9.37;42.06;101296.90;1630940;87;20251;-75
2021/04/26 11:08:36;;;;;;;;;;;;;;;9.21;41.78;101296.50;1677704;84;20167;-74
2021/04/26 11:11:22;;;;;;;;;;;;;;;9.08;41.59;101300.78;1678253;84;20277;-75
2021/04/26 11:13:56;;;;;;;;;;;;;;;8.91;41.67;101303.33;1681252;84;20182;-75
2021/04/26 11:16:30;;;;;;;;;;;;;;;8.93;41.84;101292.59;1677511;84;20264;-75
2021/04/26 11:19:05;;;;;;;;;;;;;;;8.99;41.82;101298.63;1621373;87;20285;-74
2021/04/26 11:21:49;;;;;;;;;;;;;;;9.08;41.82;101302.50;1648001;85;20497;-75
2021/04/26 11:24:31;;;;;;;;;;;;;;;9.12;41.69;101299.93;1669773;84;20266;-74
2021/04/26 11:27:16;;;;;;;;;;;;;;;9.17;41.61;101303.80;1652257;85;20279;-74
2021/04/26 11:29:47;;;;;;;;;;;;;;;9.03;41.43;101292.18;1655100;85;20186;-74
2021/04/26 11:32:14;;;;;;;;;;;;;;;9.00;41.63;101292.17;1669239;84;20548;-74
2021/04/26 11:35:01;;;;;;;;;;;;;;;9.00;41.55;101294.75;1647148;84;20635;-74
2021/04/26 11:37:29;;;;;;;;;;;;;;;9.04;41.77;101284.02;1664356;84;20274;-75
2021/04/26 11:39:56;;;;;;;;;;;;;;;9.13;41.57;101291.33;1647999;85;20281;-74
2021/04/26 11:42:27;;;;;;;;;;;;;;;9.17;41.29;101288.33;1648402;85;20285;-74
2021/04/26 11:44:54;;;;;;;;;;;;;;;9.21;41.51;101287.47;1689035;84;20259;-75
2021/04/26 11:47:22;;;;;;;;;;;;;;;9.16;41.11;101282.30;1698552;84;20320;-75
2021/04/26 11:49:50;;;;;;;;;;;;;;;9.14;41.08;101274.99;1691144;84;20293;-75
2021/04/26 11:52:22;;;;;;;;;;;;;;;9.16;41.12;101265.53;1691727;84;20285;-75
2021/04/26 11:55:06;;;;;;;;;;;;;;;9.17;41.09;101265.96;1646854;85;20182;-74
2021/04/26 11:57:40;;;;;;;;;;;;;;;9.25;41.08;101265.97;1630225;87;20311;-75
2021/04/26 12:00:09;;;;;;;;;;;;;;;9.26;40.55;101263.38;1552730;85;20265;-74
2021/04/26 12:02:42;;;;;;;;;;;;;;;9.21;40.58;101256.50;1556457;91;20218;-74
2021/04/26 12:05:12;;;;;;;;;;;;;;;9.26;40.73;101247.04;1582527;89;20897;-76
2021/04/26 12:07:38;;;;;;;;;;;;;;;9.33;40.94;101253.06;1579231;89;20280;-75
2021/04/26 12:10:11;;;;;;;;;;;;;;;9.40;40.63;101256.89;1596825;89;20492;-74
2021/04/26 12:12:37;;;;;;;;;;;;;;;9.38;40.48;101250.87;1580386;89;20287;-74
2021/04/26 12:15:07;;;;;;;;;;;;;;;9.35;40.46;101252.20;1589832;89;20266;-73
2021/04/26 12:17:37;;;;;;;;;;;;;;;9.45;40.59;101255.59;1584989;89;20271;-74
2021/04/26 12:20:13;;;;;;;;;;;;;;;9.62;40.70;101246.11;1586052;89;20763;-74
2021/04/26 12:22:39;;;;;;;;;;;;;;;9.84;40.63;101243.91;1579405;89;20197;-74
2021/04/26 12:25:07;;;;;;;;;;;;;;;10.03;40.33;101247.27;1580399;89;20484;-74
2021/04/26 12:27:34;;;;;;;;;;;;;;;10.16;40.50;101251.95;1604718;89;20214;-74
2021/04/26 12:30:16;;;;;;;;;;;;;;;10.22;40.24;101246.36;1587323;89;20256;-74
2021/04/26 12:32:43;;;;;;;;;;;;;;;10.28;40.33;101248.06;1585883;89;21040;-74
2021/04/26 12:35:16;;;;;;;;;;;;;;;10.28;40.16;101241.59;1587455;89;20567;-74
2021/04/26 12:37:46;;;;;;;;;;;;;;;10.23;40.20;101248.08;1575334;89;20518;-74
2021/04/26 12:40:24;;;;;;;;;;;;;;;10.10;39.98;101242.93;1586862;89;20209;-74
2021/04/26 12:43:00;;;;;;;;;;;;;;;10.10;40.29;101238.62;1599860;89;20162;-74
2021/04/26 12:45:29;;;;;;;;;;;;;;;10.05;40.23;101243.37;1565133;91;20278;-74
2021/04/26 12:48:06;;;;;;;;;;;;;;;9.93;40.28;101236.09;1547567;90;20675;-74
2021/04/26 12:50:44;;;;;;;;;;;;;;;9.91;40.48;101233.09;1567547;89;20221;-74
2021/04/26 12:53:15;;;;;;;;;;;;;;;9.80;40.35;101228.42;1579411;89;20492;-74